sensor_id;sensor_type;location;lat;lon;timestamp;temperature;humidity
20985;DHT22;10651;47.552;7.606;2023-10-09T06:02:16;14.10;99.90
20985;DHT22;10651;47.552;7.606;2023-10-09T06:05:00;14.20;99.90
20985;DHT22;10651;47.552;7.606;2023-10-09T06:07:45;14.20;99.90
20985;DHT22;10651;47.552;7.606;2023-10-09T06:10:32;14.10;99.90
20985;DHT22;10651;47.552;7.606;2023-10-09T06:13:08;14.10;99.90
20985;DHT22;10651;47.552;7.606;2023-10-09T06:19:16;14.10;99.90
20985;DHT22;10651;47.552;7.606;2023-10-09T06:21:44;14.20;99.90
20985;DHT22;10651;47.552;7.606;2023-10-09T06:24:30;14.20;99.90
20985;DHT22;10651;47.552;7.606;2023-10-09T06:27:11;14.20;99.90
20985;DHT22;10651;47.552;7.606;2023-10-09T06:29:49;14.30;99.90
20985;DHT22;10651;47.552;7.606;2023-10-09T06:32:16;14.30;99.90
20985;DHT22;10651;47.552;7.606;2023-10-09T06:34:49;14.30;99.90
20985;DHT22;10651;47.552;7.606;2023-10-09T06:37:21;14.30;99.90
20985;DHT22;10651;47.552;7.606;2023-10-09T06:39:54;14.40;99.90
20985;DHT22;10651;47.552;7.606;2023-10-09T06:42:23;14.40;99.90
20985;DHT22;10651;47.552;7.606;2023-10-09T06:45:07;14.50;99.90
20985;DHT22;10651;47.552;7.606;2023-10-09T06:47:49;14.50;99.90
20985;DHT22;10651;47.552;7.606;2023-10-09T06:50:35;14.50;99.90
20985;DHT22;10651;47.552;7.606;2023-10-09T06:53:19;14.60;99.90
20985;DHT22;10651;47.552;7.606;2023-10-09T06:55:45;14.70;99.90
20985;DHT22;10651;47.552;7.606;2023-10-09T06:58:15;14.70;99.90
20985;DHT22;10651;47.552;7.606;2023-10-09T07:00:51;14.70;99.90
20985;DHT22;10651;47.552;7.606;2023-10-09T07:03:27;14.70;99.90
20985;DHT22;10651;47.552;7.606;2023-10-09T07:06:08;14.70;99.90
20985;DHT22;10651;47.552;7.606;2023-10-09T07:08:52;14.80;99.90
20985;DHT22;10651;47.552;7.606;2023-10-09T07:11:33;14.90;99.90
20985;DHT22;10651;47.552;7.606;2023-10-09T07:14:06;14.80;99.90
20985;DHT22;10651;47.552;7.606;2023-10-09T07:16:35;14.90;99.90
20985;DHT22;10651;47.552;7.606;2023-10-09T07:19:23;15.10;99.90
20985;DHT22;10651;47.552;7.606;2023-10-09T07:22:07;15.20;99.90
20985;DHT22;10651;47.552;7.606;2023-10-09T07:24:45;15.30;99.90
20985;DHT22;10651;47.552;7.606;2023-10-09T07:27:30;15.40;99.90
20985;DHT22;10651;47.552;7.606;2023-10-09T07:30:17;15.70;99.90
20985;DHT22;10651;47.552;7.606;2023-10-09T07:32:56;16.00;99.90
20985;DHT22;10651;47.552;7.606;2023-10-09T07:35:34;16.10;99.90
20985;DHT22;10651;47.552;7.606;2023-10-09T07:38:22;16.30;99.90
20985;DHT22;10651;47.552;7.606;2023-10-09T07:40:50;16.60;99.90
20985;DHT22;10651;47.552;7.606;2023-10-09T07:43:36;16.60;99.90
20985;DHT22;10651;47.552;7.606;2023-10-09T07:46:06;16.40;99.90
20985;DHT22;10651;47.552;7.606;2023-10-09T07:48:50;16.40;99.90
20985;DHT22;10651;47.552;7.606;2023-10-09T07:51:24;16.30;99.90
20985;DHT22;10651;47.552;7.606;2023-10-09T07:53:57;16.30;99.90
20985;DHT22;10651;47.552;7.606;2023-10-09T07:56:26;16.20;99.90
20985;DHT22;10651;47.552;7.606;2023-10-09T07:58:58;16.30;99.90
20985;DHT22;10651;47.552;7.606;2023-10-09T08:01:26;16.30;99.90
20985;DHT22;10651;47.552;7.606;2023-10-09T08:04:01;16.30;99.90
20985;DHT22;10651;47.552;7.606;2023-10-09T08:06:30;16.30;99.90
20985;DHT22;10651;47.552;7.606;2023-10-09T08:09:06;16.50;99.90
20985;DHT22;10651;47.552;7.606;2023-10-09T08:11:46;16.60;99.90
20985;DHT22;10651;47.552;7.606;2023-10-09T08:14:12;16.70;99.90
20985;DHT22;10651;47.552;7.606;2023-10-09T08:16:57;16.70;99.90
20985;DHT22;10651;47.552;7.606;2023-10-09T08:19:41;16.90;99.90
20985;DHT22;10651;47.552;7.606;2023-10-09T08:22:30;17.10;99.90
20985;DHT22;10651;47.552;7.606;2023-10-09T08:24:56;17.30;99.90
20985;DHT22;10651;47.552;7.606;2023-10-09T08:27:22;17.70;99.90
20985;DHT22;10651;47.552;7.606;2023-10-09T08:29:58;18.00;99.90
20985;DHT22;10651;47.552;7.606;2023-10-09T08:32:42;18.30;99.90
20985;DHT22;10651;47.552;7.606;2023-10-09T08:35:09;18.40;99.90
20985;DHT22;10651;47.552;7.606;2023-10-09T08:37:54;18.60;99.90
20985;DHT22;10651;47.552;7.606;2023-10-09T08:40:34;18.60;99.90
20985;DHT22;10651;47.552;7.606;2023-10-09T08:43:21;19.10;99.90
20985;DHT22;10651;47.552;7.606;2023-10-09T08:45:54;19.50;99.90
20985;DHT22;10651;47.552;7.606;2023-10-09T08:48:26;19.90;99.90
20985;DHT22;10651;47.552;7.606;2023-10-09T08:50:53;20.00;99.90
20985;DHT22;10651;47.552;7.606;2023-10-09T08:53:22;20.30;99.90
20985;DHT22;10651;47.552;7.606;2023-10-09T08:55:49;20.60;99.90
20985;DHT22;10651;47.552;7.606;2023-10-09T08:58:17;20.80;99.90
20985;DHT22;10651;47.552;7.606;2023-10-09T09:00:50;20.80;99.90
20985;DHT22;10651;47.552;7.606;2023-10-09T09:03:18;21.10;99.90
20985;DHT22;10651;47.552;7.606;2023-10-09T09:05:59;21.40;99.90
20985;DHT22;10651;47.552;7.606;2023-10-09T09:08:29;21.80;99.90
20985;DHT22;10651;47.552;7.606;2023-10-09T09:11:07;21.90;99.90
20985;DHT22;10651;47.552;7.606;2023-10-09T09:13:45;21.90;99.90
20985;DHT22;10651;47.552;7.606;2023-10-09T09:16:22;22.10;99.90
20985;DHT22;10651;47.552;7.606;2023-10-09T09:18:58;22.30;99.90
20985;DHT22;10651;47.552;7.606;2023-10-09T09:21:37;22.40;99.90
20985;DHT22;10651;47.552;7.606;2023-10-09T09:24:06;22.50;99.90
20985;DHT22;10651;47.552;7.606;2023-10-09T09:26:52;22.70;99.90
20985;DHT22;10651;47.552;7.606;2023-10-09T09:32:03;23.70;99.90
20985;DHT22;10651;47.552;7.606;2023-10-09T09:34:47;24.20;99.90
20985;DHT22;10651;47.552;7.606;2023-10-09T09:37:28;25.30;99.90
20985;DHT22;10651;47.552;7.606;2023-10-09T09:40:02;28.90;99.90
20985;DHT22;10651;47.552;7.606;2023-10-09T09:42:45;31.70;99.90
20985;DHT22;10651;47.552;7.606;2023-10-09T09:45:14;33.70;99.90
20985;DHT22;10651;47.552;7.606;2023-10-09T09:47:44;34.70;96.80
20985;DHT22;10651;47.552;7.606;2023-10-09T09:50:17;35.70;92.70
20985;DHT22;10651;47.552;7.606;2023-10-09T09:52:55;36.10;88.30
20985;DHT22;10651;47.552;7.606;2023-10-09T09:55:24;36.30;83.80
20985;DHT22;10651;47.552;7.606;2023-10-09T09:57:57;36.40;81.80
20985;DHT22;10651;47.552;7.606;2023-10-09T10:00:31;37.20;79.60
20985;DHT22;10651;47.552;7.606;2023-10-09T10:03:17;37.40;77.80
20985;DHT22;10651;47.552;7.606;2023-10-09T10:05:45;38.50;75.00
20985;DHT22;10651;47.552;7.606;2023-10-09T10:08:19;40.10;73.80
20985;DHT22;10651;47.552;7.606;2023-10-09T10:10:46;40.40;68.00
20985;DHT22;10651;47.552;7.606;2023-10-09T10:21:41;41.90;61.90
20985;DHT22;10651;47.552;7.606;2023-10-09T10:29:43;43.70;56.20
20985;DHT22;10651;47.552;7.606;2023-10-09T10:32:15;43.80;55.80
20985;DHT22;10651;47.552;7.606;2023-10-09T10:40:10;44.40;54.80
20985;DHT22;10651;47.552;7.606;2023-10-09T10:42:48;45.60;54.50
20985;DHT22;10651;47.552;7.606;2023-10-09T10:45:38;46.20;53.20
20985;DHT22;10651;47.552;7.606;2023-10-09T10:48:10;46.80;51.40
20985;DHT22;10651;47.552;7.606;2023-10-09T10:50:57;46.40;51.60
20985;DHT22;10651;47.552;7.606;2023-10-09T10:53:24;45.50;50.60
20985;DHT22;10651;47.552;7.606;2023-10-09T10:56:03;44.60;52.50
20985;DHT22;10651;47.552;7.606;2023-10-09T10:58:38;43.60;52.70
20985;DHT22;10651;47.552;7.606;2023-10-09T11:01:03;42.60;53.20
20985;DHT22;10651;47.552;7.606;2023-10-09T11:03:39;42.00;54.40
20985;DHT22;10651;47.552;7.606;2023-10-09T11:06:29;40.60;56.00
20985;DHT22;10651;47.552;7.606;2023-10-09T11:09:08;40.90;55.40
20985;DHT22;10651;47.552;7.606;2023-10-09T11:11:36;44.70;53.50
20985;DHT22;10651;47.552;7.606;2023-10-09T11:14:12;46.90;51.00
20985;DHT22;10651;47.552;7.606;2023-10-09T11:16:43;48.10;50.00
20985;DHT22;10651;47.552;7.606;2023-10-09T11:19:14;48.90;48.30
20985;DHT22;10651;47.552;7.606;2023-10-09T11:21:53;48.40;48.00
20985;DHT22;10651;47.552;7.606;2023-10-09T11:24:46;47.40;47.70
20985;DHT22;10651;47.552;7.606;2023-10-09T11:27:25;44.40;49.60
20985;DHT22;10651;47.552;7.606;2023-10-09T11:29:54;41.90;52.10
20985;DHT22;10651;47.552;7.606;2023-10-09T11:32:21;39.60;54.10
20985;DHT22;10651;47.552;7.606;2023-10-09T11:34:50;38.20;55.90
20985;DHT22;10651;47.552;7.606;2023-10-09T11:37:23;37.60;57.20
20985;DHT22;10651;47.552;7.606;2023-10-09T11:39:55;37.00;57.50
20985;DHT22;10651;47.552;7.606;2023-10-09T11:42:22;36.40;57.60
20985;DHT22;10651;47.552;7.606;2023-10-09T11:45:24;36.20;58.80
20985;DHT22;10651;47.552;7.606;2023-10-09T11:47:54;35.90;59.30
20985;DHT22;10651;47.552;7.606;2023-10-09T11:50:44;35.40;63.70
20985;DHT22;10651;47.552;7.606;2023-10-09T11:53:42;34.50;65.50
20985;DHT22;10651;47.552;7.606;2023-10-09T11:56:09;33.80;65.70
20985;DHT22;10651;47.552;7.606;2023-10-09T11:58:40;33.60;66.00
20985;DHT22;10651;47.552;7.606;2023-10-09T12:01:15;33.60;66.70
20985;DHT22;10651;47.552;7.606;2023-10-09T12:03:46;34.50;64.60
20985;DHT22;10651;47.552;7.606;2023-10-09T12:06:21;35.20;63.70
20985;DHT22;10651;47.552;7.606;2023-10-09T12:08:55;37.20;61.10
20985;DHT22;10651;47.552;7.606;2023-10-09T12:11:23;39.90;58.30
20985;DHT22;10651;47.552;7.606;2023-10-09T12:13:54;43.20;56.50
20985;DHT22;10651;47.552;7.606;2023-10-09T12:16:23;46.00;52.00
20985;DHT22;10651;47.552;7.606;2023-10-09T12:18:53;48.10;50.50
20985;DHT22;10651;47.552;7.606;2023-10-09T12:21:20;48.70;48.60
20985;DHT22;10651;47.552;7.606;2023-10-09T12:23:46;48.20;45.20
20985;DHT22;10651;47.552;7.606;2023-10-09T12:26:13;47.80;46.80
20985;DHT22;10651;47.552;7.606;2023-10-09T12:28:42;46.70;48.40
20985;DHT22;10651;47.552;7.606;2023-10-09T12:31:15;45.10;48.50
20985;DHT22;10651;47.552;7.606;2023-10-09T12:33:41;45.00;48.40
20985;DHT22;10651;47.552;7.606;2023-10-09T12:36:14;46.60;49.00
20985;DHT22;10651;47.552;7.606;2023-10-09T12:38:46;45.20;47.20
20985;DHT22;10651;47.552;7.606;2023-10-09T12:41:24;46.20;48.70
20985;DHT22;10651;47.552;7.606;2023-10-09T12:43:59;46.50;47.20
20985;DHT22;10651;47.552;7.606;2023-10-09T12:46:24;47.50;46.50
20985;DHT22;10651;47.552;7.606;2023-10-09T12:48:54;46.40;46.30
20985;DHT22;10651;47.552;7.606;2023-10-09T12:51:20;44.30;46.40
20985;DHT22;10651;47.552;7.606;2023-10-09T12:53:47;42.20;48.50
20985;DHT22;10651;47.552;7.606;2023-10-09T12:56:20;41.80;51.20
20985;DHT22;10651;47.552;7.606;2023-10-09T12:58:47;42.30;50.70
20985;DHT22;10651;47.552;7.606;2023-10-09T13:01:22;41.10;50.80
20985;DHT22;10651;47.552;7.606;2023-10-09T13:03:48;41.00;52.60
20985;DHT22;10651;47.552;7.606;2023-10-09T13:06:16;40.70;52.00
20985;DHT22;10651;47.552;7.606;2023-10-09T13:08:49;39.70;52.20
20985;DHT22;10651;47.552;7.606;2023-10-09T13:11:15;37.90;53.30
20985;DHT22;10651;47.552;7.606;2023-10-09T13:13:45;36.40;54.90
20985;DHT22;10651;47.552;7.606;2023-10-09T13:16:19;35.40;56.20
20985;DHT22;10651;47.552;7.606;2023-10-09T13:18:57;34.50;57.30
20985;DHT22;10651;47.552;7.606;2023-10-09T13:21:26;34.10;58.10
20985;DHT22;10651;47.552;7.606;2023-10-09T13:23:52;33.50;59.80
20985;DHT22;10651;47.552;7.606;2023-10-09T13:26:23;33.20;60.80
20985;DHT22;10651;47.552;7.606;2023-10-09T13:29:01;32.90;61.10
20985;DHT22;10651;47.552;7.606;2023-10-09T13:31:28;32.40;61.60
20985;DHT22;10651;47.552;7.606;2023-10-09T13:33:57;32.10;63.00
20985;DHT22;10651;47.552;7.606;2023-10-09T13:36:25;31.90;63.30
20985;DHT22;10651;47.552;7.606;2023-10-09T13:39:07;31.90;63.90
20985;DHT22;10651;47.552;7.606;2023-10-09T13:41:57;31.90;64.50
20985;DHT22;10651;47.552;7.606;2023-10-09T13:44:48;31.90;66.40
20985;DHT22;10651;47.552;7.606;2023-10-09T13:47:14;31.80;67.40
20985;DHT22;10651;47.552;7.606;2023-10-09T13:49:47;31.70;67.90
20985;DHT22;10651;47.552;7.606;2023-10-09T13:52:17;31.50;69.20
20985;DHT22;10651;47.552;7.606;2023-10-09T13:54:47;31.60;69.10
20985;DHT22;10651;47.552;7.606;2023-10-09T13:57:16;31.70;68.80
20985;DHT22;10651;47.552;7.606;2023-10-09T13:59:42;31.80;68.60
20985;DHT22;10651;47.552;7.606;2023-10-09T14:02:18;32.30;68.60
20985;DHT22;10651;47.552;7.606;2023-10-09T14:04:47;34.70;66.00
20985;DHT22;10651;47.552;7.606;2023-10-09T14:07:13;37.30;62.50
20985;DHT22;10651;47.552;7.606;2023-10-09T14:09:43;38.10;60.90
20985;DHT22;10651;47.552;7.606;2023-10-09T14:12:08;38.50;60.10
20985;DHT22;10651;47.552;7.606;2023-10-09T14:14:44;38.90;58.30
20985;DHT22;10651;47.552;7.606;2023-10-09T14:17:22;39.00;58.50
20985;DHT22;10651;47.552;7.606;2023-10-09T14:19:56;39.30;57.70
20985;DHT22;10651;47.552;7.606;2023-10-09T14:22:42;39.70;56.70
20985;DHT22;10651;47.552;7.606;2023-10-09T14:25:10;39.60;56.80
20985;DHT22;10651;47.552;7.606;2023-10-09T14:27:40;39.30;56.90
20985;DHT22;10651;47.552;7.606;2023-10-09T14:30:07;37.90;57.10
20985;DHT22;10651;47.552;7.606;2023-10-09T14:32:38;36.60;58.20
20985;DHT22;10651;47.552;7.606;2023-10-09T14:35:13;35.60;59.90
20985;DHT22;10651;47.552;7.606;2023-10-09T14:37:42;34.80;61.80
20985;DHT22;10651;47.552;7.606;2023-10-09T14:40:08;34.40;62.40
20985;DHT22;10651;47.552;7.606;2023-10-09T14:42:46;33.90;62.80
20985;DHT22;10651;47.552;7.606;2023-10-09T14:45:12;33.30;65.10
20985;DHT22;10651;47.552;7.606;2023-10-09T14:47:44;32.90;65.20
20985;DHT22;10651;47.552;7.606;2023-10-09T14:50:13;32.50;65.90
20985;DHT22;10651;47.552;7.606;2023-10-09T14:52:40;32.10;66.10
20985;DHT22;10651;47.552;7.606;2023-10-09T14:55:06;31.90;67.90
20985;DHT22;10651;47.552;7.606;2023-10-09T14:57:32;31.80;68.40
20985;DHT22;10651;47.552;7.606;2023-10-09T15:00:00;31.70;68.50
20985;DHT22;10651;47.552;7.606;2023-10-09T15:02:26;31.50;69.20
20985;DHT22;10651;47.552;7.606;2023-10-09T15:04:52;31.10;69.50
20985;DHT22;10651;47.552;7.606;2023-10-09T15:07:18;30.80;70.30
20985;DHT22;10651;47.552;7.606;2023-10-09T15:09:46;30.40;71.70
20985;DHT22;10651;47.552;7.606;2023-10-09T15:12:12;30.20;71.40
20985;DHT22;10651;47.552;7.606;2023-10-09T15:14:38;30.20;72.10
20985;DHT22;10651;47.552;7.606;2023-10-09T15:17:04;30.20;72.10
20985;DHT22;10651;47.552;7.606;2023-10-09T15:19:32;30.30;73.00
20985;DHT22;10651;47.552;7.606;2023-10-09T15:21:59;30.20;72.90
20985;DHT22;10651;47.552;7.606;2023-10-09T15:24:25;30.10;73.40
20985;DHT22;10651;47.552;7.606;2023-10-09T15:26:53;29.90;73.40
20985;DHT22;10651;47.552;7.606;2023-10-09T15:29:23;29.50;74.10
20985;DHT22;10651;47.552;7.606;2023-10-09T15:31:54;29.30;75.10
20985;DHT22;10651;47.552;7.606;2023-10-09T15:34:21;29.10;76.00
20985;DHT22;10651;47.552;7.606;2023-10-09T15:36:47;28.90;76.30
20985;DHT22;10651;47.552;7.606;2023-10-09T15:39:13;28.80;76.20
20985;DHT22;10651;47.552;7.606;2023-10-09T15:41:39;28.80;76.40
20985;DHT22;10651;47.552;7.606;2023-10-09T15:44:06;29.00;76.70
20985;DHT22;10651;47.552;7.606;2023-10-09T15:46:31;29.00;76.50
20985;DHT22;10651;47.552;7.606;2023-10-09T15:49:00;29.10;76.80
20985;DHT22;10651;47.552;7.606;2023-10-09T15:51:27;29.00;77.30
20985;DHT22;10651;47.552;7.606;2023-10-09T15:53:53;28.90;78.70
20985;DHT22;10651;47.552;7.606;2023-10-09T15:56:19;28.70;79.00
20985;DHT22;10651;47.552;7.606;2023-10-09T15:58:46;28.60;80.40
20985;DHT22;10651;47.552;7.606;2023-10-09T16:01:13;28.30;81.50
20985;DHT22;10651;47.552;7.606;2023-10-09T16:03:43;28.00;82.60
20985;DHT22;10651;47.552;7.606;2023-10-09T16:06:11;27.90;83.30
20985;DHT22;10651;47.552;7.606;2023-10-09T16:08:38;27.70;81.90
20985;DHT22;10651;47.552;7.606;2023-10-09T16:11:05;27.60;81.20
20985;DHT22;10651;47.552;7.606;2023-10-09T16:13:31;27.40;81.60
20985;DHT22;10651;47.552;7.606;2023-10-09T16:15:58;27.40;81.00
20985;DHT22;10651;47.552;7.606;2023-10-09T16:18:27;27.30;81.20
20985;DHT22;10651;47.552;7.606;2023-10-09T16:20:54;27.20;82.00
20985;DHT22;10651;47.552;7.606;2023-10-09T16:23:20;27.10;82.00
20985;DHT22;10651;47.552;7.606;2023-10-09T16:25:46;27.00;82.80
20985;DHT22;10651;47.552;7.606;2023-10-09T16:28:12;26.80;83.50
20985;DHT22;10651;47.552;7.606;2023-10-09T16:30:41;26.70;84.50
20985;DHT22;10651;47.552;7.606;2023-10-09T16:33:08;26.60;84.90
20985;DHT22;10651;47.552;7.606;2023-10-09T16:35:35;26.50;86.00
20985;DHT22;10651;47.552;7.606;2023-10-09T16:38:03;26.40;86.40
20985;DHT22;10651;47.552;7.606;2023-10-09T16:40:37;26.30;87.90
20985;DHT22;10651;47.552;7.606;2023-10-09T16:43:03;26.10;88.00
20985;DHT22;10651;47.552;7.606;2023-10-09T16:45:31;26.00;87.90
20985;DHT22;10651;47.552;7.606;2023-10-09T16:48:01;25.90;88.90
20985;DHT22;10651;47.552;7.606;2023-10-09T16:50:31;25.90;89.60
20985;DHT22;10651;47.552;7.606;2023-10-09T16:52:57;25.80;90.20
20985;DHT22;10651;47.552;7.606;2023-10-09T16:55:23;25.70;90.60
20985;DHT22;10651;47.552;7.606;2023-10-09T16:57:52;25.60;91.00
20985;DHT22;10651;47.552;7.606;2023-10-09T17:00:19;25.50;91.30
20985;DHT22;10651;47.552;7.606;2023-10-09T17:02:55;25.50;91.60
20985;DHT22;10651;47.552;7.606;2023-10-09T17:05:22;25.30;91.60
20985;DHT22;10651;47.552;7.606;2023-10-09T17:07:56;25.30;91.90
20985;DHT22;10651;47.552;7.606;2023-10-09T17:10:22;25.20;92.90
20985;DHT22;10651;47.552;7.606;2023-10-09T17:12:54;25.20;93.00
20985;DHT22;10651;47.552;7.606;2023-10-09T17:15:20;25.00;94.70
20985;DHT22;10651;47.552;7.606;2023-10-09T17:17:47;24.90;94.50
20985;DHT22;10651;47.552;7.606;2023-10-09T17:20:18;24.80;94.90
20985;DHT22;10651;47.552;7.606;2023-10-09T17:22:47;24.70;95.70
20985;DHT22;10651;47.552;7.606;2023-10-09T17:25:16;24.60;96.30
20985;DHT22;10651;47.552;7.606;2023-10-09T17:27:43;24.50;96.20
20985;DHT22;10651;47.552;7.606;2023-10-09T17:30:12;24.40;96.70
20985;DHT22;10651;47.552;7.606;2023-10-09T17:32:43;24.30;97.00
20985;DHT22;10651;47.552;7.606;2023-10-09T17:35:11;24.20;97.80
20985;DHT22;10651;47.552;7.606;2023-10-09T17:37:37;24.20;98.50
20985;DHT22;10651;47.552;7.606;2023-10-09T17:40:05;24.10;98.70
20985;DHT22;10651;47.552;7.606;2023-10-09T17:42:35;24.10;99.40
20985;DHT22;10651;47.552;7.606;2023-10-09T17:45:02;24.00;99.90
20985;DHT22;10651;47.552;7.606;2023-10-09T17:47:31;24.00;99.90
20985;DHT22;10651;47.552;7.606;2023-10-09T17:50:04;23.90;99.90
20985;DHT22;10651;47.552;7.606;2023-10-09T17:52:33;23.80;99.90
20985;DHT22;10651;47.552;7.606;2023-10-09T17:55:00;23.80;99.90
20985;DHT22;10651;47.552;7.606;2023-10-09T17:57:27;23.70;99.90
20985;DHT22;10651;47.552;7.606;2023-10-09T17:59:53;23.60;99.90
20985;DHT22;10651;47.552;7.606;2023-10-09T18:02:22;23.50;99.90
20985;DHT22;10651;47.552;7.606;2023-10-09T18:04:48;23.40;99.90
20985;DHT22;10651;47.552;7.606;2023-10-09T18:07:14;23.40;99.90
20985;DHT22;10651;47.552;7.606;2023-10-09T18:09:45;23.30;99.90
20985;DHT22;10651;47.552;7.606;2023-10-09T18:12:20;23.20;99.90
20985;DHT22;10651;47.552;7.606;2023-10-09T18:14:50;23.10;99.90
20985;DHT22;10651;47.552;7.606;2023-10-09T18:17:24;23.10;99.90
20985;DHT22;10651;47.552;7.606;2023-10-09T18:19:52;23.10;99.90
20985;DHT22;10651;47.552;7.606;2023-10-09T18:22:21;23.00;99.90
20985;DHT22;10651;47.552;7.606;2023-10-09T18:24:50;22.90;99.90
20985;DHT22;10651;47.552;7.606;2023-10-09T18:27:16;22.80;99.90
20985;DHT22;10651;47.552;7.606;2023-10-09T18:29:42;22.70;99.90
20985;DHT22;10651;47.552;7.606;2023-10-09T18:32:14;22.60;99.90
20985;DHT22;10651;47.552;7.606;2023-10-09T18:34:40;22.50;99.90
20985;DHT22;10651;47.552;7.606;2023-10-09T18:37:06;22.50;99.90
20985;DHT22;10651;47.552;7.606;2023-10-09T18:39:34;22.40;99.90
20985;DHT22;10651;47.552;7.606;2023-10-09T18:42:05;22.40;99.90
20985;DHT22;10651;47.552;7.606;2023-10-09T18:44:35;22.40;99.90
20985;DHT22;10651;47.552;7.606;2023-10-09T18:47:00;22.30;99.90
20985;DHT22;10651;47.552;7.606;2023-10-09T18:49:31;22.30;99.90
20985;DHT22;10651;47.552;7.606;2023-10-09T18:51:57;22.30;99.90
20985;DHT22;10651;47.552;7.606;2023-10-09T18:54:23;22.20;99.90
20985;DHT22;10651;47.552;7.606;2023-10-09T18:56:49;22.10;99.90
20985;DHT22;10651;47.552;7.606;2023-10-09T18:59:15;22.10;99.90
20985;DHT22;10651;47.552;7.606;2023-10-09T19:01:40;22.10;99.90
20985;DHT22;10651;47.552;7.606;2023-10-09T19:04:06;22.00;99.90
20985;DHT22;10651;47.552;7.606;2023-10-09T19:06:37;21.90;99.90
20985;DHT22;10651;47.552;7.606;2023-10-09T19:09:06;21.80;99.90
20985;DHT22;10651;47.552;7.606;2023-10-09T19:11:35;21.80;99.90
20985;DHT22;10651;47.552;7.606;2023-10-09T19:14:04;21.70;99.90
20985;DHT22;10651;47.552;7.606;2023-10-09T19:16:34;21.60;99.90
20985;DHT22;10651;47.552;7.606;2023-10-09T19:19:01;21.60;99.90
20985;DHT22;10651;47.552;7.606;2023-10-09T19:21:30;21.50;99.90
20985;DHT22;10651;47.552;7.606;2023-10-09T19:23:56;21.50;99.90
20985;DHT22;10651;47.552;7.606;2023-10-09T19:26:23;21.40;99.90
20985;DHT22;10651;47.552;7.606;2023-10-09T19:28:53;21.30;99.90
20985;DHT22;10651;47.552;7.606;2023-10-09T19:31:18;21.30;99.90
20985;DHT22;10651;47.552;7.606;2023-10-09T19:33:47;21.30;99.90
20985;DHT22;10651;47.552;7.606;2023-10-09T19:36:14;21.20;99.90
20985;DHT22;10651;47.552;7.606;2023-10-09T19:38:43;21.20;99.90
20985;DHT22;10651;47.552;7.606;2023-10-09T19:41:16;21.10;99.90
20985;DHT22;10651;47.552;7.606;2023-10-09T19:43:42;21.00;99.90
20985;DHT22;10651;47.552;7.606;2023-10-09T19:46:08;21.00;99.90
20985;DHT22;10651;47.552;7.606;2023-10-09T19:48:34;20.90;99.90
20985;DHT22;10651;47.552;7.606;2023-10-09T19:51:01;20.90;99.90
20985;DHT22;10651;47.552;7.606;2023-10-09T19:53:27;20.90;99.90
20985;DHT22;10651;47.552;7.606;2023-10-09T19:55:52;20.80;99.90
20985;DHT22;10651;47.552;7.606;2023-10-09T19:58:23;20.80;99.90
20985;DHT22;10651;47.552;7.606;2023-10-09T20:00:51;20.80;99.90
20985;DHT22;10651;47.552;7.606;2023-10-09T20:03:19;20.70;99.90
20985;DHT22;10651;47.552;7.606;2023-10-09T20:05:48;20.60;99.90
20985;DHT22;10651;47.552;7.606;2023-10-09T20:08:14;20.60;99.90
20985;DHT22;10651;47.552;7.606;2023-10-09T20:10:40;20.50;99.90
20985;DHT22;10651;47.552;7.606;2023-10-09T20:13:06;20.50;99.90
20985;DHT22;10651;47.552;7.606;2023-10-09T20:15:35;20.50;99.90
20985;DHT22;10651;47.552;7.606;2023-10-09T20:18:06;20.50;99.90
20985;DHT22;10651;47.552;7.606;2023-10-09T20:20:36;20.40;99.90
20985;DHT22;10651;47.552;7.606;2023-10-09T20:23:02;20.40;99.90
20985;DHT22;10651;47.552;7.606;2023-10-09T20:25:29;20.40;99.90
20985;DHT22;10651;47.552;7.606;2023-10-09T20:27:55;20.40;99.90
20985;DHT22;10651;47.552;7.606;2023-10-09T20:30:22;20.30;99.90
20985;DHT22;10651;47.552;7.606;2023-10-09T20:32:51;20.30;99.90
20985;DHT22;10651;47.552;7.606;2023-10-09T20:35:20;20.30;99.90
20985;DHT22;10651;47.552;7.606;2023-10-09T20:37:52;20.20;99.90
20985;DHT22;10651;47.552;7.606;2023-10-09T20:40:20;20.20;99.90
20985;DHT22;10651;47.552;7.606;2023-10-09T20:42:49;20.20;99.90
20985;DHT22;10651;47.552;7.606;2023-10-09T20:45:18;20.10;99.90
20985;DHT22;10651;47.552;7.606;2023-10-09T20:47:45;20.00;99.90
20985;DHT22;10651;47.552;7.606;2023-10-09T20:50:12;20.10;99.90
20985;DHT22;10651;47.552;7.606;2023-10-09T20:52:44;20.00;99.90
20985;DHT22;10651;47.552;7.606;2023-10-09T20:55:10;20.00;99.90
20985;DHT22;10651;47.552;7.606;2023-10-09T20:57:48;20.00;99.90
20985;DHT22;10651;47.552;7.606;2023-10-09T21:00:15;19.90;99.90
20985;DHT22;10651;47.552;7.606;2023-10-09T21:02:52;19.90;99.90
